createdAt,value
2022-10-09T00:01:26.083Z,102476.75
2022-10-09T00:03:56.798Z,102482.19
2022-10-09T00:06:31.538Z,102483.69
2022-10-09T00:08:59.303Z,102485.34
2022-10-09T00:11:27.485Z,102485.00
2022-10-09T00:13:55.634Z,102492.41
2022-10-09T00:16:23.208Z,102494.38
2022-10-09T00:18:50.432Z,102501.03
2022-10-09T00:21:26.093Z,102494.81
2022-10-09T00:23:54.887Z,102503.44
2022-10-09T00:26:21.694Z,102503.44
2022-10-09T00:28:49.176Z,102501.88
2022-10-09T00:31:16.525Z,102509.28
2022-10-09T00:33:43.055Z,102508.97
2022-10-09T00:36:13.288Z,102512.47
2022-10-09T00:38:40.124Z,102510.94
2022-10-09T00:41:07.329Z,102512.88
2022-10-09T00:43:44.706Z,102517.22
2022-10-09T00:46:20.246Z,102517.97
2022-10-09T00:49:00.010Z,102511.44
2022-10-09T00:51:27.413Z,102526.97
2022-10-09T00:54:16.581Z,102518.03
2022-10-09T00:56:46.668Z,102530.16
2022-10-09T00:59:14.020Z,102532.53
2022-10-09T01:01:41.491Z,102529.06
2022-10-09T01:04:08.063Z,102533.69
2022-10-09T01:06:48.256Z,102524.03
2022-10-09T01:09:28.115Z,102532.19
2022-10-09T01:12:03.593Z,102524.44
2022-10-09T01:14:34.028Z,102534.56
2022-10-09T01:17:09.578Z,102537.31
2022-10-09T01:19:54.814Z,102537.75
2022-10-09T01:22:42.392Z,102528.00
2022-10-09T01:25:14.846Z,102533.47
2022-10-09T01:27:43.616Z,102525.28
2022-10-09T01:30:12.187Z,102528.00
2022-10-09T01:32:47.052Z,102526.94
2022-10-09T01:35:15.239Z,102519.94
2022-10-09T01:37:44.216Z,102528.13
2022-10-09T01:40:14.157Z,102521.13
2022-10-09T01:42:40.695Z,102532.44
2022-10-09T01:45:11.037Z,102526.66
2022-10-09T01:47:38.003Z,102522.75
2022-10-09T01:50:22.993Z,102527.81
2022-10-09T01:52:53.061Z,102530.56
2022-10-09T01:55:28.818Z,102524.34
2022-10-09T01:58:16.963Z,102525.09
2022-10-09T02:01:04.588Z,102531.44
2022-10-09T02:03:33.488Z,102537.94
2022-10-09T02:06:01.933Z,102534.91
2022-10-09T02:08:30.008Z,102537.28
2022-10-09T02:11:00.305Z,102533.81
2022-10-09T02:13:29.730Z,102532.25
2022-10-09T02:16:09.565Z,102534.22
2022-10-09T02:18:48.439Z,102541.63
2022-10-09T02:21:25.393Z,102536.19
2022-10-09T02:23:53.514Z,102540.09
2022-10-09T02:26:20.082Z,102539.34
2022-10-09T02:28:46.914Z,102539.34
2022-10-09T02:31:22.906Z,102535.06
2022-10-09T02:34:05.061Z,102545.97
2022-10-09T02:36:32.401Z,102541.69
2022-10-09T02:38:59.543Z,102543.66
2022-10-09T02:41:26.519Z,102548.69
2022-10-09T02:43:53.160Z,102544.44
2022-10-09T02:46:20.085Z,102555.41
2022-10-09T02:48:46.615Z,102550.72
2022-10-09T02:51:13.041Z,102552.66
2022-10-09T02:53:39.491Z,102556.59
2022-10-09T02:56:06.128Z,102549.94
2022-10-09T02:58:34.255Z,102557.72
2022-10-09T03:01:01.167Z,102557.34
2022-10-09T03:03:27.664Z,102559.75
2022-10-09T03:06:05.716Z,102563.56
2022-10-09T03:08:32.606Z,102567.47
2022-10-09T03:10:59.092Z,102562.78
2022-10-09T03:13:25.578Z,102569.44
2022-10-09T03:15:52.102Z,102573.38
2022-10-09T03:18:18.937Z,102578.44
2022-10-09T03:20:45.520Z,102576.84
2022-10-09T03:23:12.461Z,102578.88
2022-10-09T03:25:38.915Z,102581.63
2022-10-09T03:28:05.426Z,102573.84
2022-10-09T03:30:31.910Z,102580.84
2022-10-09T03:32:58.299Z,102581.63
2022-10-09T03:35:24.724Z,102575.47
2022-10-09T03:37:51.160Z,102581.69
2022-10-09T03:40:18.391Z,102588.63
2022-10-09T03:42:44.791Z,102580.16
2022-10-09T03:45:11.234Z,102585.91
2022-10-09T03:47:37.620Z,102580.91
2022-10-09T03:50:04.304Z,102584.81
2022-10-09T03:52:30.709Z,102582.53
2022-10-09T03:54:57.123Z,102584.06
2022-10-09T03:57:23.632Z,102589.16
2022-10-09T03:59:50.046Z,102589.16
2022-10-09T04:02:16.472Z,102588.81
2022-10-09T04:04:42.935Z,102595.00
2022-10-09T04:07:11.793Z,102588.88
2022-10-09T04:09:38.252Z,102588.47
2022-10-09T04:12:04.719Z,102591.94
2022-10-09T04:14:31.125Z,102590.75
2022-10-09T04:16:57.566Z,102589.66
2022-10-09T04:19:24.035Z,102594.31
2022-10-09T04:21:50.461Z,102596.66
2022-10-09T04:24:16.874Z,102595.94
2022-10-09T04:26:43.310Z,102600.63
2022-10-09T04:29:11.145Z,102598.22
2022-10-09T04:31:37.709Z,102597.09
2022-10-09T04:34:04.155Z,102601.72
2022-10-09T04:36:30.605Z,102601.41
2022-10-09T04:38:57.070Z,102598.66
2022-10-09T04:41:23.807Z,102602.56
2022-10-09T04:43:54.618Z,102603.75
2022-10-09T04:46:21.053Z,102600.69
2022-10-09T04:48:48.058Z,102597.97
2022-10-09T04:51:16.180Z,102608.88
2022-10-09T04:53:42.990Z,102608.41
2022-10-09T04:56:11.691Z,102601.09
2022-10-09T04:58:40.680Z,102611.22
2022-10-09T05:01:12.422Z,102602.28
2022-10-09T05:03:39.229Z,102609.66
2022-10-09T05:06:08.116Z,102617.84
2022-10-09T05:08:35.219Z,102606.53
2022-10-09T05:11:03.215Z,102611.66
2022-10-09T05:13:31.084Z,102615.13
2022-10-09T05:16:01.088Z,102615.13
2022-10-09T05:18:27.577Z,102612.84
2022-10-09T05:20:54.175Z,102610.88
2022-10-09T05:23:20.610Z,102614.78
2022-10-09T05:26:02.577Z,102611.69
2022-10-09T05:28:29.210Z,102614.84
2022-10-09T05:30:55.675Z,102616.38
2022-10-09T05:33:22.326Z,102614.84
2022-10-09T05:35:57.340Z,102618.75
2022-10-09T05:38:25.014Z,102620.72
2022-10-09T05:40:59.916Z,102618.41
2022-10-09T05:43:35.270Z,102617.22
2022-10-09T05:46:12.391Z,102618.81
2022-10-09T05:48:40.661Z,102614.56
2022-10-09T05:51:18.820Z,102623.50
2022-10-09T05:53:46.715Z,102620.78
2022-10-09T05:56:14.496Z,102618.06
2022-10-09T05:58:42.046Z,102618.81
2022-10-09T06:01:09.050Z,102621.22
2022-10-09T06:03:36.880Z,102632.84
2022-10-09T06:06:05.216Z,102623.94
2022-10-09T06:08:34.018Z,102632.13
2022-10-09T06:11:12.651Z,102635.22
2022-10-09T06:13:39.548Z,102627.06
2022-10-09T06:16:06.388Z,102630.19
2022-10-09T06:18:33.391Z,102636.84
2022-10-09T06:21:01.428Z,102636.41
2022-10-09T06:23:28.532Z,102636.41
2022-10-09T06:25:57.556Z,102632.16
2022-10-09T06:28:25.215Z,102642.28
2022-10-09T06:30:51.707Z,102635.63
2022-10-09T06:35:44.456Z,102642.69
2022-10-09T06:40:38.347Z,102649.31
2022-10-09T06:43:05.330Z,102657.06
2022-10-09T06:45:35.751Z,102651.59
2022-10-09T06:48:02.169Z,102656.28
2022-10-09T06:50:28.568Z,102653.97
2022-10-09T06:52:55.021Z,102660.19
2022-10-09T06:55:24.095Z,102666.81
2022-10-09T06:57:54.196Z,102665.31
2022-10-09T07:00:20.687Z,102667.59
2022-10-09T07:02:47.404Z,102670.31
2022-10-09T07:05:14.218Z,102669.19
2022-10-09T07:07:41.750Z,102671.53
2022-10-09T07:10:09.464Z,102668.41
2022-10-09T07:12:37.004Z,102678.97
2022-10-09T07:15:05.851Z,102678.97
2022-10-09T07:17:33.028Z,102684.41
2022-10-09T07:19:59.510Z,102674.72
2022-10-09T07:22:27.109Z,102678.19
2022-10-09T07:24:53.788Z,102680.47
2022-10-09T07:27:20.210Z,102683.97
2022-10-09T07:29:46.696Z,102683.97
2022-10-09T07:32:13.077Z,102687.88
2022-10-09T07:34:39.514Z,102688.66
2022-10-09T07:37:05.926Z,102694.09
2022-10-09T07:39:32.376Z,102690.28
2022-10-09T07:41:58.789Z,102699.22
2022-10-09T07:44:25.188Z,102698.03
2022-10-09T07:46:51.861Z,102692.91
2022-10-09T07:49:18.394Z,102693.69
2022-10-09T07:51:45.306Z,102694.81
2022-10-09T07:54:12.264Z,102700.59
2022-10-09T07:56:39.118Z,102696.63
2022-10-09T07:59:08.389Z,102702.78
2022-10-09T08:01:35.976Z,102702.72
2022-10-09T08:04:03.397Z,102706.16
2022-10-09T08:06:30.650Z,102704.97
2022-10-09T08:08:58.361Z,102712.31
2022-10-09T08:11:27.035Z,102702.91
2022-10-09T08:13:56.139Z,102708.19
2022-10-09T08:16:25.501Z,102701.44
2022-10-09T08:18:56.877Z,102708.69
2022-10-09T08:21:23.385Z,102704.66
2022-10-09T08:23:54.185Z,102700.22
2022-10-09T08:26:22.458Z,102705.53
2022-10-09T08:29:00.371Z,102712.38
2022-10-09T08:31:28.099Z,102708.72
2022-10-09T08:33:55.973Z,102707.06
2022-10-09T08:36:23.492Z,102701.09
2022-10-09T08:38:50.054Z,102714.91
2022-10-09T08:41:33.083Z,102710.50
2022-10-09T08:44:04.732Z,102708.81
2022-10-09T08:46:37.841Z,102712.16
2022-10-09T08:49:05.215Z,102718.63
2022-10-09T08:51:37.351Z,102725.97
2022-10-09T08:54:22.643Z,102718.81
2022-10-09T08:56:50.631Z,102716.31
2022-10-09T08:59:17.157Z,102716.59
2022-10-09T09:02:07.881Z,102711.41
2022-10-09T09:04:55.517Z,102721.00
2022-10-09T09:07:43.682Z,102719.66
2022-10-09T09:10:39.365Z,102718.38
2022-10-09T09:14:01.208Z,102722.53
2022-10-09T09:16:49.111Z,102718.09
2022-10-09T09:19:15.475Z,102724.97
2022-10-09T09:21:51.164Z,102712.78
2022-10-09T09:24:20.869Z,102715.03
2022-10-09T09:26:51.746Z,102719.59
2022-10-09T09:29:25.280Z,102704.66
2022-10-09T09:31:57.448Z,102710.78
2022-10-09T09:34:41.879Z,102707.09
2022-10-09T09:37:11.607Z,102706.59
2022-10-09T09:42:27.217Z,102707.03
2022-10-09T09:45:03.034Z,102702.66
2022-10-09T09:47:45.546Z,102708.41
2022-10-09T09:50:35.182Z,102711.78
2022-10-09T09:53:05.235Z,102700.31
2022-10-09T09:55:33.327Z,102696.28
2022-10-09T09:58:13.480Z,102701.28
2022-10-09T10:00:40.112Z,102698.47
2022-10-09T10:03:14.610Z,102703.81
2022-10-09T10:05:42.919Z,102702.97
2022-10-09T10:08:33.771Z,102695.88
2022-10-09T10:11:02.886Z,102690.28
2022-10-09T10:14:05.326Z,102692.91
2022-10-09T10:16:38.243Z,102692.03
2022-10-09T10:19:06.106Z,102694.69
2022-10-09T10:21:41.897Z,102684.81
2022-10-09T10:24:14.091Z,102688.22
2022-10-09T10:26:40.484Z,102685.78
2022-10-09T10:29:23.622Z,102681.75
2022-10-09T10:32:05.423Z,102687.56
2022-10-09T10:35:13.149Z,102681.19
2022-10-09T10:38:01.354Z,102682.28
2022-10-09T10:40:41.834Z,102681.84
2022-10-09T10:43:11.341Z,102680.22
2022-10-09T10:45:52.727Z,102678.56
2022-10-09T10:48:29.364Z,102678.16
2022-10-09T10:51:19.753Z,102673.31
2022-10-09T10:53:55.378Z,102665.44
2022-10-09T10:56:47.164Z,102668.81
2022-10-09T10:59:48.505Z,102658.19
2022-10-09T11:02:48.610Z,102661.09
2022-10-09T11:05:26.972Z,102654.78
2022-10-09T11:08:11.064Z,102658.16
2022-10-09T11:11:01.605Z,102658.03
2022-10-09T11:13:49.161Z,102648.19
2022-10-09T11:16:34.566Z,102652.78
2022-10-09T11:19:00.960Z,102648.06
2022-10-09T11:21:38.145Z,102642.59
2022-10-09T11:24:26.708Z,102641.38
2022-10-09T11:27:24.016Z,102637.13
2022-10-09T11:29:57.239Z,102639.75
2022-10-09T11:32:38.668Z,102644.75
2022-10-09T11:35:18.580Z,102639.16
2022-10-09T11:38:03.519Z,102639.81
2022-10-09T11:40:38.352Z,102631.91
2022-10-09T11:43:19.235Z,102636.50
2022-10-09T11:46:04.131Z,102642.28
2022-10-09T11:48:33.520Z,102628.94
2022-10-09T11:51:35.152Z,102628.78
2022-10-09T11:54:03.716Z,102629.88
2022-10-09T11:56:32.222Z,102624.28
2022-10-09T11:59:06.853Z,102612.88
2022-10-09T12:01:41.691Z,102613.22
2022-10-09T12:04:14.036Z,102608.34
2022-10-09T12:06:52.792Z,102604.84
2022-10-09T12:09:28.277Z,102607.00
2022-10-09T12:12:07.257Z,102603.38
2022-10-09T12:14:37.178Z,102596.25
2022-10-09T12:17:15.604Z,102593.81
2022-10-09T12:19:42.927Z,102588.31
2022-10-09T12:22:41.333Z,102587.13
2022-10-09T12:25:19.363Z,102578.63
2022-10-09T12:27:49.032Z,102578.25
2022-10-09T12:30:20.827Z,102567.91
2022-10-09T12:33:02.269Z,102570.31
2022-10-09T12:35:39.810Z,102557.53
2022-10-09T12:38:25.859Z,102562.84
2022-10-09T12:40:54.282Z,102556.28
2022-10-09T12:43:23.569Z,102552.78
2022-10-09T12:45:52.679Z,102549.72
2022-10-09T12:48:22.902Z,102552.91
2022-10-09T12:50:49.710Z,102550.19
2022-10-09T12:53:18.892Z,102544.38
2022-10-09T12:55:49.363Z,102545.13
2022-10-09T12:58:32.329Z,102545.28
2022-10-09T13:01:05.706Z,102544.94
2022-10-09T13:03:39.409Z,102544.66
2022-10-09T13:06:13.598Z,102533.84
2022-10-09T13:08:40.846Z,102536.69
2022-10-09T13:11:24.923Z,102531.34
2022-10-09T13:13:53.700Z,102527.53
2022-10-09T13:16:20.965Z,102515.47
2022-10-09T13:19:01.893Z,102515.63
2022-10-09T13:21:35.217Z,102507.88
2022-10-09T13:24:10.145Z,102510.28
2022-10-09T13:26:39.014Z,102499.78
2022-10-09T13:29:07.118Z,102498.25
2022-10-09T13:31:36.531Z,102502.19
2022-10-09T13:34:13.212Z,102495.22
2022-10-09T13:36:40.177Z,102500.69
2022-10-09T13:39:06.590Z,102498.84
2022-10-09T13:41:33.773Z,102489.09
2022-10-09T13:44:00.223Z,102482.09
2022-10-09T13:46:26.757Z,102483.28
2022-10-09T13:48:53.168Z,102479.19
2022-10-09T13:51:19.560Z,102481.13
2022-10-09T13:53:45.949Z,102477.63
2022-10-09T13:56:12.336Z,102469.91
2022-10-09T13:58:38.877Z,102464.88
2022-10-09T14:01:05.697Z,102473.19
2022-10-09T14:03:32.160Z,102470.91
2022-10-09T14:05:59.796Z,102468.59
2022-10-09T14:08:26.503Z,102465.56
2022-10-09T14:10:53.176Z,102466.44
2022-10-09T14:13:20.608Z,102463.41
2022-10-09T14:15:47.609Z,102454.88
2022-10-09T14:18:14.113Z,102456.19
2022-10-09T14:20:40.518Z,102450.41
2022-10-09T14:23:06.995Z,102448.16
2022-10-09T14:25:37.108Z,102446.72
2022-10-09T14:28:03.713Z,102443.66
2022-10-09T14:30:30.714Z,102444.56
2022-10-09T14:32:57.473Z,102444.69
2022-10-09T14:35:24.131Z,102435.38
2022-10-09T14:37:50.738Z,102434.31
2022-10-09T14:40:17.266Z,102438.38
2022-10-09T14:42:43.674Z,102433.00
2022-10-09T14:45:10.875Z,102425.69
2022-10-09T14:47:37.382Z,102425.03
2022-10-09T14:50:04.268Z,102416.97
2022-10-09T14:52:30.826Z,102413.53
2022-10-09T14:54:57.248Z,102413.53
2022-10-09T14:57:23.692Z,102410.44
2022-10-09T14:59:50.132Z,102419.38
2022-10-09T15:02:17.146Z,102411.97
2022-10-09T15:04:43.555Z,102412.88
2022-10-09T15:07:09.984Z,102404.66
2022-10-09T15:09:36.445Z,102410.13
2022-10-09T15:12:03.104Z,102402.81
2022-10-09T15:14:29.517Z,102402.81
2022-10-09T15:16:55.990Z,102401.19
2022-10-09T15:19:22.383Z,102388.81
2022-10-09T15:21:48.843Z,102393.84
2022-10-09T15:24:15.303Z,102385.31
2022-10-09T15:26:42.075Z,102382.56
2022-10-09T15:29:09.069Z,102383.03
2022-10-09T15:31:38.536Z,102374.84
2022-10-09T15:34:07.659Z,102378.78
2022-10-09T15:36:36.817Z,102371.00
2022-10-09T15:39:07.048Z,102366.75
2022-10-09T15:41:36.887Z,102358.25
2022-10-09T15:44:06.307Z,102362.63
2022-10-09T15:46:32.948Z,102358.06
2022-10-09T15:48:59.480Z,102360.03
2022-10-09T15:51:26.099Z,102349.97
2022-10-09T15:53:53.218Z,102355.44
2022-10-09T15:56:23.156Z,102352.81
2022-10-09T15:58:50.651Z,102354.13
2022-10-09T16:01:17.710Z,102358.53
2022-10-09T16:03:44.775Z,102347.25
2022-10-09T16:06:14.747Z,102345.75
2022-10-09T16:08:42.660Z,102344.66
2022-10-09T16:11:11.734Z,102340.41
2022-10-09T16:13:40.110Z,102338.56
2022-10-09T16:16:09.823Z,102337.00
2022-10-09T16:18:38.129Z,102336.69
2022-10-09T16:21:07.209Z,102337.16
2022-10-09T16:23:33.956Z,102336.91
2022-10-09T16:26:03.268Z,102341.97
2022-10-09T16:28:34.730Z,102341.63
2022-10-09T16:31:01.332Z,102337.81
2022-10-09T16:33:28.478Z,102343.28
2022-10-09T16:35:55.012Z,102339.44
2022-10-09T16:38:21.523Z,102335.53
2022-10-09T16:41:01.416Z,102334.88
2022-10-09T16:43:29.060Z,102334.53
2022-10-09T16:45:55.493Z,102340.44
2022-10-09T16:48:21.954Z,102329.97
2022-10-09T16:50:48.361Z,102329.66
2022-10-09T16:53:14.943Z,102330.06
2022-10-09T16:55:41.387Z,102325.50
2022-10-09T16:58:07.872Z,102321.56
2022-10-09T17:00:34.424Z,102322.00
2022-10-09T17:03:00.981Z,102315.78
2022-10-09T17:05:27.448Z,102310.00
2022-10-09T17:07:54.348Z,102313.16
2022-10-09T17:10:20.828Z,102308.16
2022-10-09T17:12:47.262Z,102301.94
2022-10-09T17:15:13.870Z,102303.13
2022-10-09T17:17:40.911Z,102305.53
2022-10-09T17:20:07.854Z,102306.31
2022-10-09T17:22:34.295Z,102303.25
2022-10-09T17:25:00.691Z,102300.50
2022-10-09T17:27:27.659Z,102302.91
2022-10-09T17:29:54.614Z,102301.06
2022-10-09T17:32:21.165Z,102303.03
2022-10-09T17:34:47.718Z,102295.59
2022-10-09T17:37:14.145Z,102298.75
2022-10-09T17:39:43.418Z,102292.53
2022-10-09T17:42:11.265Z,102295.69
2022-10-09T17:44:37.755Z,102298.09
2022-10-09T17:47:05.329Z,102299.28
2022-10-09T17:49:31.878Z,102306.72
2022-10-09T17:51:58.336Z,102290.81
2022-10-09T17:54:24.819Z,102292.00
2022-10-09T17:56:51.252Z,102292.00
2022-10-09T17:59:17.698Z,102295.16
2022-10-09T18:01:44.206Z,102293.66
2022-10-09T18:04:17.362Z,102284.69
2022-10-09T18:06:43.905Z,102285.56
2022-10-09T18:09:10.482Z,102283.59
2022-10-09T18:11:37.247Z,102285.56
2022-10-09T18:14:04.266Z,102280.53
2022-10-09T18:16:36.302Z,102283.75
2022-10-09T18:19:06.320Z,102275.97
2022-10-09T18:21:34.073Z,102279.44
2022-10-09T18:24:00.592Z,102275.97
2022-10-09T18:26:27.376Z,102274.44
2022-10-09T18:28:53.866Z,102267.44
2022-10-09T18:31:35.291Z,102272.16
2022-10-09T18:34:01.737Z,102263.63
2022-10-09T18:36:31.330Z,102256.63
2022-10-09T18:39:05.801Z,102251.19
2022-10-09T18:41:32.670Z,102262.56
2022-10-09T18:44:01.359Z,102250.13
2022-10-09T18:46:33.899Z,102247.06
2022-10-09T18:49:00.729Z,102254.47
2022-10-09T18:51:28.678Z,102247.50
2022-10-09T18:53:59.874Z,102245.19
2022-10-09T18:56:29.611Z,102249.13
2022-10-09T18:58:56.157Z,102242.47
2022-10-09T19:01:22.749Z,102239.84
2022-10-09T19:03:50.357Z,102252.75
2022-10-09T19:06:18.523Z,102250.03
2022-10-09T19:08:45.892Z,102238.75
2022-10-09T19:11:14.285Z,102244.69
2022-10-09T19:13:42.350Z,102232.25
2022-10-09T19:16:09.824Z,102227.94
2022-10-09T19:18:36.341Z,102233.00
2022-10-09T19:21:02.944Z,102224.47
2022-10-09T19:23:29.513Z,102223.69
2022-10-09T19:25:57.645Z,102226.13
2022-10-09T19:28:26.973Z,102222.63
2022-10-09T19:30:54.502Z,102221.53
2022-10-09T19:33:21.036Z,102223.81
2022-10-09T19:35:52.759Z,102224.25
2022-10-09T19:38:21.202Z,102231.22
2022-10-09T19:40:48.553Z,102228.19
2022-10-09T19:43:16.295Z,102227.00
2022-10-09T19:45:43.266Z,102219.25
2022-10-09T19:48:10.290Z,102228.72
2022-10-09T19:50:44.062Z,102221.31
2022-10-09T19:53:11.296Z,102226.31
2022-10-09T19:55:38.116Z,102218.28
2022-10-09T19:58:05.123Z,102212.38
2022-10-09T20:00:31.726Z,102205.81
2022-10-09T20:02:58.176Z,102216.72
2022-10-09T20:05:24.743Z,102217.91
2022-10-09T20:07:51.185Z,102217.91
2022-10-09T20:10:17.634Z,102216.06
2022-10-09T20:12:44.080Z,102210.97
2022-10-09T20:15:10.803Z,102208.31
2022-10-09T20:17:37.212Z,102208.31
2022-10-09T20:20:05.228Z,102204.09
2022-10-09T20:22:31.652Z,102204.09
2022-10-09T20:24:58.117Z,102207.25
2022-10-09T20:27:24.551Z,102208.41
2022-10-09T20:29:53.073Z,102211.13
2022-10-09T20:32:19.650Z,102210.84
2022-10-09T20:34:46.071Z,102202.31
2022-10-09T20:37:12.516Z,102207.34
2022-10-09T20:39:38.962Z,102212.78
2022-10-09T20:42:05.472Z,102193.06
2022-10-09T20:44:31.997Z,102193.81
2022-10-09T20:46:58.413Z,102186.41
2022-10-09T20:49:24.879Z,102194.69
2022-10-09T20:51:53.085Z,102196.25
2022-10-09T20:54:21.590Z,102193.50
2022-10-09T20:56:48.828Z,102188.91
2022-10-09T20:59:16.222Z,102195.13
2022-10-09T21:01:42.955Z,102190.13
2022-10-09T21:04:11.165Z,102191.31
2022-10-09T21:06:38.064Z,102187.50
2022-10-09T21:09:04.957Z,102179.31
2022-10-09T21:11:34.884Z,102183.53
2022-10-09T21:14:02.668Z,102182.03
2022-10-09T21:16:29.252Z,102183.53
2022-10-09T21:18:58.753Z,102177.78
2022-10-09T21:21:25.722Z,102181.72
2022-10-09T21:23:53.946Z,102177.44
2022-10-09T21:26:22.044Z,102173.22
2022-10-09T21:28:49.169Z,102157.69
2022-10-09T21:31:22.892Z,102162.31
2022-10-09T21:33:49.986Z,102173.66
2022-10-09T21:36:23.865Z,102156.53
2022-10-09T21:38:50.276Z,102157.69
2022-10-09T21:41:16.702Z,102159.69
2022-10-09T21:43:45.591Z,102154.97
2022-10-09T21:46:11.981Z,102154.66
2022-10-09T21:48:38.378Z,102150.88
2022-10-09T21:51:05.045Z,102150.50
2022-10-09T21:53:31.977Z,102146.50
2022-10-09T21:55:58.350Z,102132.56
2022-10-09T21:58:24.826Z,102134.53
2022-10-09T22:00:58.854Z,102125.25
2022-10-09T22:03:27.422Z,102120.56
2022-10-09T22:05:54.313Z,102119.34
2022-10-09T22:08:23.669Z,102115.97
2022-10-09T22:10:50.181Z,102112.38
2022-10-09T22:13:17.603Z,102114.91
2022-10-09T22:15:48.829Z,102112.19
2022-10-09T22:18:17.392Z,102107.78
2022-10-09T22:20:46.909Z,102101.59
2022-10-09T22:23:14.350Z,102097.44
2022-10-09T22:25:40.766Z,102094.31
2022-10-09T22:28:07.540Z,102083.81
2022-10-09T22:30:34.126Z,102089.25
2022-10-09T22:33:00.590Z,102088.84
2022-10-09T22:35:27.543Z,102076.88
2022-10-09T22:37:54.088Z,102077.31
2022-10-09T22:40:20.641Z,102074.97
2022-10-09T22:42:47.346Z,102073.03
2022-10-09T22:45:14.016Z,102072.63
2022-10-09T22:47:40.510Z,102067.59
2022-10-09T22:50:07.338Z,102066.81
2022-10-09T22:52:33.730Z,102068.03
2022-10-09T22:55:00.673Z,102061.34
2022-10-09T22:57:27.099Z,102064.88
2022-10-09T22:59:53.598Z,102058.63
2022-10-09T23:02:19.994Z,102059.09
2022-10-09T23:04:46.410Z,102056.38
2022-10-09T23:07:12.894Z,102060.00
2022-10-09T23:09:39.351Z,102058.78
2022-10-09T23:12:05.891Z,102053.00
2022-10-09T23:14:32.627Z,102044.81
2022-10-09T23:16:59.063Z,102044.81
2022-10-09T23:19:25.508Z,102046.38
2022-10-09T23:21:51.939Z,102043.66
2022-10-09T23:24:18.456Z,102035.56
2022-10-09T23:26:46.515Z,102043.72
2022-10-09T23:29:16.193Z,102033.69
2022-10-09T23:31:43.249Z,102027.81
2022-10-09T23:34:09.865Z,102030.53
2022-10-09T23:36:36.348Z,102034.47
2022-10-09T23:39:06.113Z,102026.72
2022-10-09T23:41:35.926Z,102030.22
2022-10-09T23:44:02.588Z,102027.50
2022-10-09T23:46:33.026Z,102021.28
2022-10-09T23:49:00.041Z,102008.44
2022-10-09T23:51:27.550Z,102010.84
2022-10-09T23:53:54.453Z,102007.78
2022-10-09T23:56:26.403Z,102005.81
2022-10-09T23:58:54.275Z,102004.31
